Time,TemperatureF,DewpointF,PressureIn,WindDirection,WindDirectionDegrees,WindSpeedMPH,WindSpeedGustMPH,Humidity,HourlyPrecipIn,Conditions,Clouds,dailyrainin,SoftwareType,DateUTC
2013-03-22 04:22:00,26.6,0.7,29.77,WSW,246,5.7,5.7,32,0.00,,---,0.00,VWS V14.01,2013-03-22 08:22:00,
2013-03-22 04:23:00,26.6,0.7,29.77,WSW,241,5.0,5.7,32,0.00,,---,0.00,VWS V14.01,2013-03-22 08:23:00,
2013-03-22 04:24:00,26.6,0.7,29.77,WSW,240,5.7,7.2,32,0.00,,---,0.00,VWS V14.01,2013-03-22 08:24:00,
2013-03-22 04:30:00,26.6,0.7,29.77,WSW,256,5.7,10.0,32,0.00,,---,0.00,VWS V14.01,2013-03-22 08:30:00,
2013-03-22 04:31:00,26.8,0.9,29.77,WSW,253,5.7,6.4,32,0.00,,---,0.00,VWS V14.01,2013-03-22 08:31:00,
2013-03-22 04:37:00,26.8,0.9,29.77,WSW,257,4.3,6.4,32,0.00,,---,0.00,VWS V14.01,2013-03-22 08:37:00,
2013-03-22 04:42:00,27.0,1.7,29.77,WSW,240,4.3,8.6,33,0.00,,---,0.00,VWS V14.01,2013-03-22 08:42:00,
2013-03-22 04:48:00,27.1,1.9,29.77,WSW,238,10.0,10.0,33,0.00,,---,0.00,VWS V14.01,2013-03-22 08:48:00,
2013-03-22 04:53:00,27.5,2.2,29.77,West,281,6.4,6.4,33,0.00,,---,0.00,VWS V14.01,2013-03-22 08:53:00,
2013-03-22 04:59:00,27.7,2.3,29.77,WSW,238,6.4,8.6,33,0.00,,---,0.00,VWS V14.01,2013-03-22 08:59:00,
2013-03-22 05:05:00,27.7,2.3,29.77,West,271,5.0,10.0,33,0.00,,---,0.00,VWS V14.01,2013-03-22 09:05:00,
2013-03-22 16:22:00,43.7,5.3,29.83,West,274,24.7,24.7,20,0.00,,---,0.00,VWS V14.01,2013-03-22 20:22:00,
2013-03-22 16:28:00,44.1,5.6,29.83,WNW,284,12.9,16.1,20,0.00,,---,0.00,VWS V14.01,2013-03-22 20:28:00,
2013-03-22 16:33:00,44.1,5.6,29.83,West,263,14.0,14.0,20,0.00,,---,0.00,VWS V14.01,2013-03-22 20:33:00,
2013-03-22 16:39:00,43.7,5.3,29.83,West,270,19.0,24.0,20,0.00,,---,0.00,VWS V14.01,2013-03-22 20:39:00,
2013-03-22 16:44:00,43.9,5.4,29.83,WSW,255,25.4,25.4,20,0.00,,---,0.00,VWS V14.01,2013-03-22 20:44:00,
2013-03-22 16:50:00,43.9,5.4,29.83,WNW,284,9.3,14.0,20,0.00,,---,0.00,VWS V14.01,2013-03-22 20:50:00,
2013-03-22 16:55:00,43.5,5.1,29.83,West,272,16.8,19.0,20,0.00,,---,0.00,VWS V14.01,2013-03-22 20:55:00,
2013-03-22 17:00:00,43.3,5.0,29.83,NW,316,6.4,10.0,20,0.00,,---,0.00,VWS V14.01,2013-03-22 21:00:00,
2013-03-22 17:06:00,43.3,5.0,29.83,WSW,258,9.3,13.2,20,0.00,,---,0.00,VWS V14.01,2013-03-22 21:06:00,
2013-03-22 17:11:00,43.7,5.3,29.83,West,270,26.8,26.8,20,0.00,,---,0.00,VWS V14.01,2013-03-22 21:11:00,
2013-03-22 17:17:00,43.5,5.1,29.83,WNW,294,5.7,17.5,20,0.00,,---,0.00,VWS V14.01,2013-03-22 21:17:00,
2013-03-22 17:22:00,43.3,5.0,29.80,West,259,10.0,22.5,20,0.00,,---,0.00,VWS V14.01,2013-03-22 21:22:00,
2013-03-22 17:28:00,43.0,4.7,29.80,West,264,19.0,19.0,20,0.00,,---,0.00,VWS V14.01,2013-03-22 21:28:00,
2013-03-22 17:33:00,42.6,5.4,29.80,WSW,243,16.8,20.4,21,0.00,,---,0.00,VWS V14.01,2013-03-22 21:33:00,
2013-03-22 17:39:00,42.3,5.1,29.83,West,272,10.0,19.7,21,0.00,,---,0.00,VWS V14.01,2013-03-22 21:39:00,
2013-03-22 17:45:00,42.3,5.1,29.83,West,276,12.9,20.4,21,0.00,,---,0.00,VWS V14.01,2013-03-22 21:45:00,
2013-03-22 17:50:00,42.1,5.0,29.83,WSW,249,13.2,17.5,21,0.00,,---,0.00,VWS V14.01,2013-03-22 21:50:00,
2013-03-22 17:56:00,42.1,5.0,29.83,West,281,14.0,14.0,21,0.00,,---,0.00,VWS V14.01,2013-03-22 21:56:00,
2013-03-22 18:02:00,42.1,5.0,29.83,West,276,12.9,20.4,21,0.00,,---,0.00,VWS V14.01,2013-03-22 22:02:00,
2013-03-22 18:07:00,42.3,5.1,29.83,WNW,287,15.4,15.4,21,0.00,,---,0.00,VWS V14.01,2013-03-22 22:07:00,
2013-03-22 18:13:00,42.4,5.3,29.83,WSW,251,12.2,19.7,21,0.00,,---,0.00,VWS V14.01,2013-03-22 22:13:00,
2013-03-22 18:18:00,42.4,5.3,29.83,WSW,248,14.0,17.5,21,0.00,,---,0.00,VWS V14.01,2013-03-22 22:18:00,
2013-03-22 18:24:00,42.3,5.1,29.83,WSW,254,12.2,13.2,21,0.00,,---,0.00,VWS V14.01,2013-03-22 22:24:00,
2013-03-22 18:29:00,41.9,4.8,29.83,West,272,14.7,25.4,21,0.00,,---,0.00,VWS V14.01,2013-03-22 22:29:00,
2013-03-22 18:35:00,41.5,4.5,29.83,WSW,239,10.0,17.5,21,0.00,,---,0.00,VWS V14.01,2013-03-22 22:35:00,
2013-03-22 18:40:00,41.2,4.2,29.85,West,259,12.2,16.8,21,0.00,,---,0.00,VWS V14.01,2013-03-22 22:40:00,
2013-03-22 18:45:00,41.0,4.1,29.85,West,259,13.2,22.5,21,0.00,,---,0.00,VWS V14.01,2013-03-22 22:45:00,
2013-03-22 18:51:00,40.6,3.8,29.85,WSW,246,8.6,10.0,21,0.00,,---,0.00,VWS V14.01,2013-03-22 22:51:00,
2013-03-22 18:56:00,40.5,5.6,29.85,West,261,12.9,12.9,23,0.00,,---,0.00,VWS V14.01,2013-03-22 22:56:00,
2013-03-22 19:02:00,40.3,5.4,29.85,West,274,16.1,16.1,23,0.00,,---,0.00,VWS V14.01,2013-03-22 23:02:00,
2013-03-22 19:07:00,40.1,5.3,29.85,West,265,12.9,12.9,23,0.00,,---,0.00,VWS V14.01,2013-03-22 23:07:00,
2013-03-22 19:13:00,39.9,5.1,29.85,WSW,256,9.3,10.7,23,0.00,,---,0.00,VWS V14.01,2013-03-22 23:13:00,
2013-03-22 19:19:00,39.7,5.0,29.85,West,270,10.0,14.0,23,0.00,,---,0.00,VWS V14.01,2013-03-22 23:19:00,
2013-03-22 19:24:00,39.6,4.8,29.85,West,260,8.6,9.3,23,0.00,,---,0.00,VWS V14.01,2013-03-22 23:24:00,
2013-03-22 19:30:00,39.2,4.5,29.85,WSW,255,6.4,12.2,23,0.00,,---,0.00,VWS V14.01,2013-03-22 23:30:00,
2013-03-22 19:35:00,39.0,5.3,29.85,WSW,240,14.0,20.4,24,0.00,,---,0.00,VWS V14.01,2013-03-22 23:35:00,
2013-03-22 19:41:00,39.0,5.3,29.85,West,271,17.5,17.5,24,0.00,,---,0.00,VWS V14.01,2013-03-22 23:41:00,
2013-03-22 19:46:00,38.8,5.2,29.85,West,259,13.2,20.4,24,0.00,,---,0.00,VWS V14.01,2013-03-22 23:46:00,
2013-03-22 19:52:00,38.8,5.2,29.88,WSW,253,6.4,12.2,24,0.00,,---,0.00,VWS V14.01,2013-03-22 23:52:00,
2013-03-22 19:57:00,38.7,5.0,29.88,SW,221,16.1,16.1,24,0.00,,---,0.00,VWS V14.01,2013-03-22 23:57:00,
2013-03-22 20:02:00,38.7,5.0,29.88,West,273,10.0,15.4,24,0.00,,---,0.00,VWS V14.01,2013-03-23 00:02:00,
2013-03-22 20:08:00,38.5,4.8,29.88,SSW,203,9.3,10.0,24,0.00,,---,0.00,VWS V14.01,2013-03-23 00:08:00,
2013-03-22 20:13:00,38.3,4.7,29.88,SW,231,9.3,12.9,24,0.00,,---,0.00,VWS V14.01,2013-03-23 00:13:00,